Anderson Regional Airport Anderson US
ICAO: KAND
IATA: AND
Category: Medium
Scheduled Services: No

Elevation: 782 ft
TransAlt. 18000 ft.

Airport Communications:
GREER APP/DEP:118.8
ASOS:120.675
CTAF:123.6
RDO:122.2
UNICOM:122.95

KAND Zoom In..

Runways:

(A) RW 05 length 6002 ft width 149 ft
ILS 111.90 / hdg 51

(B) RW 17 length 4996 ft width 149 ft
---- / hdg 171

(C) RW 23 length 6002 ft width 149 ft
---- / hdg 231

(D) RW 35 length 4996 ft width 149 ft
---- / hdg 351

Location; KAND
Day. 29 / Time. 22.56 Zulu
* Altimeter: 30.01
* Temperature: 25° c. 77°f.
* Wind from: 240° Speed 14 kn.
Dewpoint: 04° c.
Visibility: 10 Statute Miles.
Clouds: Clear (automated report).

KAND 292256Z AUTO 24014KT 10SM CLR 25/04 A3001 RMK AO2 PK WND 23026/2210 SLP154 T02500039


Wind From 240°
Speed 14 kn.

 
 
jpsmedia worldairports.se 2020   terms of use